sensor_id;sensor_type;location;lat;lon;timestamp;P1;durP1;ratioP1;P2;durP2;ratioP2
8478;SDS011;4276;49.354;6.804;2024-01-15T00:01:52;29.07;;;14.67;;
8478;SDS011;4276;49.354;6.804;2024-01-15T00:04:18;27.63;;;15.07;;
8478;SDS011;4276;49.354;6.804;2024-01-15T00:06:45;25.73;;;14.63;;
8478;SDS011;4276;49.354;6.804;2024-01-15T00:09:12;24.57;;;15.40;;
8478;SDS011;4276;49.354;6.804;2024-01-15T00:11:38;24.67;;;13.93;;
8478;SDS011;4276;49.354;6.804;2024-01-15T00:14:05;26.43;;;14.60;;
8478;SDS011;4276;49.354;6.804;2024-01-15T00:16:31;26.50;;;13.97;;
8478;SDS011;4276;49.354;6.804;2024-01-15T00:18:58;20.50;;;13.43;;
8478;SDS011;4276;49.354;6.804;2024-01-15T00:21:25;25.87;;;15.33;;
8478;SDS011;4276;49.354;6.804;2024-01-15T00:23:51;23.57;;;14.67;;
8478;SDS011;4276;49.354;6.804;2024-01-15T00:26:18;25.37;;;13.93;;
8478;SDS011;4276;49.354;6.804;2024-01-15T00:28:44;27.03;;;14.60;;
8478;SDS011;4276;49.354;6.804;2024-01-15T00:31:11;26.17;;;14.53;;
8478;SDS011;4276;49.354;6.804;2024-01-15T00:33:37;25.10;;;16.00;;
8478;SDS011;4276;49.354;6.804;2024-01-15T00:36:04;27.03;;;14.83;;
8478;SDS011;4276;49.354;6.804;2024-01-15T00:38:31;27.73;;;15.73;;
8478;SDS011;4276;49.354;6.804;2024-01-15T00:40:58;27.40;;;15.50;;
8478;SDS011;4276;49.354;6.804;2024-01-15T00:43:24;29.10;;;16.63;;
8478;SDS011;4276;49.354;6.804;2024-01-15T00:45:50;25.70;;;14.73;;
8478;SDS011;4276;49.354;6.804;2024-01-15T00:48:17;28.30;;;15.37;;
8478;SDS011;4276;49.354;6.804;2024-01-15T00:50:44;29.00;;;15.50;;
8478;SDS011;4276;49.354;6.804;2024-01-15T00:53:10;28.90;;;15.53;;
8478;SDS011;4276;49.354;6.804;2024-01-15T00:55:37;26.10;;;14.83;;
8478;SDS011;4276;49.354;6.804;2024-01-15T00:58:03;23.57;;;14.40;;
8478;SDS011;4276;49.354;6.804;2024-01-15T01:00:30;24.27;;;14.80;;
8478;SDS011;4276;49.354;6.804;2024-01-15T01:02:57;28.13;;;15.10;;
8478;SDS011;4276;49.354;6.804;2024-01-15T01:05:23;28.37;;;15.77;;
8478;SDS011;4276;49.354;6.804;2024-01-15T01:07:50;22.57;;;14.53;;
8478;SDS011;4276;49.354;6.804;2024-01-15T01:10:16;30.60;;;15.47;;
8478;SDS011;4276;49.354;6.804;2024-01-15T01:12:43;30.70;;;16.13;;
8478;SDS011;4276;49.354;6.804;2024-01-15T01:15:10;27.23;;;15.07;;
8478;SDS011;4276;49.354;6.804;2024-01-15T01:17:36;26.43;;;14.90;;
8478;SDS011;4276;49.354;6.804;2024-01-15T01:20:03;28.33;;;14.73;;
8478;SDS011;4276;49.354;6.804;2024-01-15T01:22:32;26.10;;;15.53;;
8478;SDS011;4276;49.354;6.804;2024-01-15T01:24:59;28.83;;;15.33;;
8478;SDS011;4276;49.354;6.804;2024-01-15T01:27:25;28.77;;;15.63;;
8478;SDS011;4276;49.354;6.804;2024-01-15T01:29:52;29.97;;;15.03;;
8478;SDS011;4276;49.354;6.804;2024-01-15T01:32:19;28.77;;;16.57;;
8478;SDS011;4276;49.354;6.804;2024-01-15T01:34:45;26.90;;;14.93;;
8478;SDS011;4276;49.354;6.804;2024-01-15T01:37:12;25.53;;;14.63;;
8478;SDS011;4276;49.354;6.804;2024-01-15T01:39:40;25.93;;;15.43;;
8478;SDS011;4276;49.354;6.804;2024-01-15T01:42:07;27.70;;;15.10;;
8478;SDS011;4276;49.354;6.804;2024-01-15T01:44:34;27.77;;;15.63;;
8478;SDS011;4276;49.354;6.804;2024-01-15T01:47:00;27.07;;;14.27;;
8478;SDS011;4276;49.354;6.804;2024-01-15T01:49:27;25.80;;;15.17;;
8478;SDS011;4276;49.354;6.804;2024-01-15T01:51:58;25.33;;;15.17;;
8478;SDS011;4276;49.354;6.804;2024-01-15T01:54:26;30.20;;;16.37;;
8478;SDS011;4276;49.354;6.804;2024-01-15T01:56:54;30.53;;;15.77;;
8478;SDS011;4276;49.354;6.804;2024-01-15T01:59:20;24.20;;;15.17;;
8478;SDS011;4276;49.354;6.804;2024-01-15T02:01:49;27.17;;;15.33;;
8478;SDS011;4276;49.354;6.804;2024-01-15T02:04:16;23.50;;;14.60;;
8478;SDS011;4276;49.354;6.804;2024-01-15T02:06:47;27.53;;;15.37;;
8478;SDS011;4276;49.354;6.804;2024-01-15T02:09:14;27.10;;;15.27;;
8478;SDS011;4276;49.354;6.804;2024-01-15T02:11:41;27.27;;;15.57;;
8478;SDS011;4276;49.354;6.804;2024-01-15T02:14:08;24.57;;;14.77;;
8478;SDS011;4276;49.354;6.804;2024-01-15T02:16:35;23.43;;;14.50;;
8478;SDS011;4276;49.354;6.804;2024-01-15T02:19:02;23.90;;;15.73;;
8478;SDS011;4276;49.354;6.804;2024-01-15T02:21:28;25.10;;;14.00;;
8478;SDS011;4276;49.354;6.804;2024-01-15T02:23:55;28.17;;;16.73;;
8478;SDS011;4276;49.354;6.804;2024-01-15T02:26:22;26.57;;;16.70;;
8478;SDS011;4276;49.354;6.804;2024-01-15T02:28:49;26.67;;;15.83;;
8478;SDS011;4276;49.354;6.804;2024-01-15T02:31:17;29.67;;;16.07;;
8478;SDS011;4276;49.354;6.804;2024-01-15T02:33:43;28.33;;;16.17;;
8478;SDS011;4276;49.354;6.804;2024-01-15T02:36:12;28.90;;;16.33;;
8478;SDS011;4276;49.354;6.804;2024-01-15T02:38:39;25.63;;;14.97;;
8478;SDS011;4276;49.354;6.804;2024-01-15T02:41:09;25.23;;;15.23;;
8478;SDS011;4276;49.354;6.804;2024-01-15T02:43:35;22.40;;;14.93;;
8478;SDS011;4276;49.354;6.804;2024-01-15T02:46:02;28.97;;;16.27;;
8478;SDS011;4276;49.354;6.804;2024-01-15T02:48:28;24.20;;;15.07;;
8478;SDS011;4276;49.354;6.804;2024-01-15T02:50:55;23.20;;;15.43;;
8478;SDS011;4276;49.354;6.804;2024-01-15T02:53:21;25.00;;;15.63;;
8478;SDS011;4276;49.354;6.804;2024-01-15T02:55:48;26.47;;;15.77;;
8478;SDS011;4276;49.354;6.804;2024-01-15T02:58:14;25.17;;;16.57;;
8478;SDS011;4276;49.354;6.804;2024-01-15T03:00:41;26.43;;;15.80;;
8478;SDS011;4276;49.354;6.804;2024-01-15T03:03:08;28.47;;;16.53;;
8478;SDS011;4276;49.354;6.804;2024-01-15T03:05:35;27.10;;;16.00;;
8478;SDS011;4276;49.354;6.804;2024-01-15T03:08:02;25.10;;;15.03;;
8478;SDS011;4276;49.354;6.804;2024-01-15T03:10:28;26.87;;;15.83;;
8478;SDS011;4276;49.354;6.804;2024-01-15T03:12:55;26.50;;;16.07;;
8478;SDS011;4276;49.354;6.804;2024-01-15T03:15:21;22.13;;;14.33;;
8478;SDS011;4276;49.354;6.804;2024-01-15T03:17:48;25.57;;;16.43;;
8478;SDS011;4276;49.354;6.804;2024-01-15T03:20:15;25.73;;;15.57;;
8478;SDS011;4276;49.354;6.804;2024-01-15T03:22:41;23.63;;;14.30;;
8478;SDS011;4276;49.354;6.804;2024-01-15T03:25:08;25.73;;;15.63;;
8478;SDS011;4276;49.354;6.804;2024-01-15T03:27:34;22.27;;;14.80;;
8478;SDS011;4276;49.354;6.804;2024-01-15T03:30:01;25.23;;;14.50;;
8478;SDS011;4276;49.354;6.804;2024-01-15T03:32:28;24.43;;;15.70;;
8478;SDS011;4276;49.354;6.804;2024-01-15T03:34:55;22.20;;;14.67;;
8478;SDS011;4276;49.354;6.804;2024-01-15T03:37:22;24.27;;;16.20;;
8478;SDS011;4276;49.354;6.804;2024-01-15T03:39:48;25.13;;;15.93;;
8478;SDS011;4276;49.354;6.804;2024-01-15T03:42:15;29.77;;;17.10;;
8478;SDS011;4276;49.354;6.804;2024-01-15T03:44:42;27.10;;;15.80;;
8478;SDS011;4276;49.354;6.804;2024-01-15T03:47:08;23.77;;;15.70;;
8478;SDS011;4276;49.354;6.804;2024-01-15T03:49:36;23.73;;;15.47;;
8478;SDS011;4276;49.354;6.804;2024-01-15T03:52:03;24.23;;;15.53;;
8478;SDS011;4276;49.354;6.804;2024-01-15T03:54:29;22.70;;;13.90;;
8478;SDS011;4276;49.354;6.804;2024-01-15T03:56:56;29.03;;;16.70;;
8478;SDS011;4276;49.354;6.804;2024-01-15T03:59:22;24.63;;;16.33;;
8478;SDS011;4276;49.354;6.804;2024-01-15T04:01:49;23.77;;;14.77;;
8478;SDS011;4276;49.354;6.804;2024-01-15T04:04:17;26.43;;;16.07;;
8478;SDS011;4276;49.354;6.804;2024-01-15T04:06:44;29.40;;;16.23;;
8478;SDS011;4276;49.354;6.804;2024-01-15T04:09:14;22.43;;;14.53;;
8478;SDS011;4276;49.354;6.804;2024-01-15T04:11:41;25.77;;;16.63;;
8478;SDS011;4276;49.354;6.804;2024-01-15T04:14:07;25.20;;;16.20;;
8478;SDS011;4276;49.354;6.804;2024-01-15T04:16:34;26.77;;;16.17;;
8478;SDS011;4276;49.354;6.804;2024-01-15T04:19:00;26.40;;;17.83;;
8478;SDS011;4276;49.354;6.804;2024-01-15T04:21:27;24.47;;;17.07;;
8478;SDS011;4276;49.354;6.804;2024-01-15T04:23:54;27.03;;;16.87;;
8478;SDS011;4276;49.354;6.804;2024-01-15T04:26:20;24.23;;;15.80;;
8478;SDS011;4276;49.354;6.804;2024-01-15T04:28:47;26.03;;;15.80;;
8478;SDS011;4276;49.354;6.804;2024-01-15T04:31:23;24.43;;;16.37;;
8478;SDS011;4276;49.354;6.804;2024-01-15T04:33:51;27.23;;;17.03;;
8478;SDS011;4276;49.354;6.804;2024-01-15T04:36:17;26.50;;;17.63;;
8478;SDS011;4276;49.354;6.804;2024-01-15T04:38:44;27.40;;;16.93;;
8478;SDS011;4276;49.354;6.804;2024-01-15T04:41:14;24.33;;;17.00;;
8478;SDS011;4276;49.354;6.804;2024-01-15T04:43:42;28.53;;;17.17;;
8478;SDS011;4276;49.354;6.804;2024-01-15T04:46:08;28.67;;;18.93;;
8478;SDS011;4276;49.354;6.804;2024-01-15T04:48:35;25.63;;;17.40;;
8478;SDS011;4276;49.354;6.804;2024-01-15T04:51:04;26.80;;;17.40;;
8478;SDS011;4276;49.354;6.804;2024-01-15T04:53:31;26.33;;;19.37;;
8478;SDS011;4276;49.354;6.804;2024-01-15T04:55:57;28.57;;;17.63;;
8478;SDS011;4276;49.354;6.804;2024-01-15T04:58:24;26.53;;;17.77;;
8478;SDS011;4276;49.354;6.804;2024-01-15T05:00:53;28.20;;;19.27;;
8478;SDS011;4276;49.354;6.804;2024-01-15T05:03:20;26.17;;;17.67;;
8478;SDS011;4276;49.354;6.804;2024-01-15T05:05:47;27.30;;;17.40;;
8478;SDS011;4276;49.354;6.804;2024-01-15T05:08:14;29.47;;;19.10;;
8478;SDS011;4276;49.354;6.804;2024-01-15T05:10:40;33.10;;;21.17;;
8478;SDS011;4276;49.354;6.804;2024-01-15T05:13:07;29.50;;;17.83;;
8478;SDS011;4276;49.354;6.804;2024-01-15T05:15:33;26.10;;;18.40;;
8478;SDS011;4276;49.354;6.804;2024-01-15T05:18:00;31.20;;;18.77;;
8478;SDS011;4276;49.354;6.804;2024-01-15T05:20:26;27.43;;;17.63;;
8478;SDS011;4276;49.354;6.804;2024-01-15T05:22:53;29.20;;;18.17;;
8478;SDS011;4276;49.354;6.804;2024-01-15T05:25:20;28.47;;;19.80;;
8478;SDS011;4276;49.354;6.804;2024-01-15T05:27:46;28.50;;;18.83;;
8478;SDS011;4276;49.354;6.804;2024-01-15T05:30:13;28.57;;;19.30;;
8478;SDS011;4276;49.354;6.804;2024-01-15T05:32:40;29.80;;;19.97;;
8478;SDS011;4276;49.354;6.804;2024-01-15T05:35:06;26.37;;;17.07;;
8478;SDS011;4276;49.354;6.804;2024-01-15T05:37:33;28.60;;;17.97;;
8478;SDS011;4276;49.354;6.804;2024-01-15T05:40:00;30.87;;;19.53;;
8478;SDS011;4276;49.354;6.804;2024-01-15T05:42:26;27.07;;;17.90;;
8478;SDS011;4276;49.354;6.804;2024-01-15T05:44:56;27.10;;;18.23;;
8478;SDS011;4276;49.354;6.804;2024-01-15T05:47:22;25.47;;;17.10;;
8478;SDS011;4276;49.354;6.804;2024-01-15T05:49:49;27.97;;;18.20;;
8478;SDS011;4276;49.354;6.804;2024-01-15T05:52:16;27.07;;;18.27;;
8478;SDS011;4276;49.354;6.804;2024-01-15T05:54:43;24.57;;;18.37;;
8478;SDS011;4276;49.354;6.804;2024-01-15T05:57:10;26.33;;;17.43;;
8478;SDS011;4276;49.354;6.804;2024-01-15T05:59:36;25.87;;;17.97;;
8478;SDS011;4276;49.354;6.804;2024-01-15T06:02:03;29.93;;;17.60;;
8478;SDS011;4276;49.354;6.804;2024-01-15T06:04:30;28.70;;;18.57;;
8478;SDS011;4276;49.354;6.804;2024-01-15T06:06:56;28.10;;;19.00;;
8478;SDS011;4276;49.354;6.804;2024-01-15T06:09:23;28.07;;;19.17;;
8478;SDS011;4276;49.354;6.804;2024-01-15T06:11:50;30.47;;;18.73;;
8478;SDS011;4276;49.354;6.804;2024-01-15T06:14:16;28.37;;;19.47;;
8478;SDS011;4276;49.354;6.804;2024-01-15T06:16:43;29.30;;;18.50;;
8478;SDS011;4276;49.354;6.804;2024-01-15T06:19:09;29.30;;;18.67;;
8478;SDS011;4276;49.354;6.804;2024-01-15T06:21:36;31.67;;;19.13;;
8478;SDS011;4276;49.354;6.804;2024-01-15T06:24:03;28.27;;;18.20;;
8478;SDS011;4276;49.354;6.804;2024-01-15T06:26:29;31.03;;;19.23;;
8478;SDS011;4276;49.354;6.804;2024-01-15T06:28:56;28.13;;;18.33;;
8478;SDS011;4276;49.354;6.804;2024-01-15T06:31:22;27.77;;;18.20;;
8478;SDS011;4276;49.354;6.804;2024-01-15T06:33:49;27.57;;;18.17;;
8478;SDS011;4276;49.354;6.804;2024-01-15T06:36:16;30.90;;;18.50;;
8478;SDS011;4276;49.354;6.804;2024-01-15T06:38:43;30.30;;;19.03;;
8478;SDS011;4276;49.354;6.804;2024-01-15T06:41:10;28.60;;;17.40;;
8478;SDS011;4276;49.354;6.804;2024-01-15T06:43:37;30.07;;;19.33;;
8478;SDS011;4276;49.354;6.804;2024-01-15T06:46:03;29.50;;;18.73;;
8478;SDS011;4276;49.354;6.804;2024-01-15T06:48:33;28.50;;;18.90;;
8478;SDS011;4276;49.354;6.804;2024-01-15T06:51:00;28.37;;;18.97;;
8478;SDS011;4276;49.354;6.804;2024-01-15T06:53:27;32.53;;;18.97;;
8478;SDS011;4276;49.354;6.804;2024-01-15T06:55:53;48.33;;;33.57;;
8478;SDS011;4276;49.354;6.804;2024-01-15T06:58:20;30.73;;;19.43;;
8478;SDS011;4276;49.354;6.804;2024-01-15T07:00:46;32.87;;;20.07;;
8478;SDS011;4276;49.354;6.804;2024-01-15T07:03:13;29.53;;;18.97;;
8478;SDS011;4276;49.354;6.804;2024-01-15T07:05:40;28.83;;;18.60;;
8478;SDS011;4276;49.354;6.804;2024-01-15T07:08:07;30.57;;;18.77;;
8478;SDS011;4276;49.354;6.804;2024-01-15T07:10:34;31.33;;;18.30;;
8478;SDS011;4276;49.354;6.804;2024-01-15T07:13:03;32.27;;;19.90;;
8478;SDS011;4276;49.354;6.804;2024-01-15T07:15:31;31.17;;;19.23;;
8478;SDS011;4276;49.354;6.804;2024-01-15T07:17:57;31.13;;;20.23;;
8478;SDS011;4276;49.354;6.804;2024-01-15T07:20:24;27.53;;;18.80;;
8478;SDS011;4276;49.354;6.804;2024-01-15T07:22:51;32.20;;;18.83;;
8478;SDS011;4276;49.354;6.804;2024-01-15T07:25:17;29.23;;;18.90;;
8478;SDS011;4276;49.354;6.804;2024-01-15T07:27:44;33.00;;;19.47;;
8478;SDS011;4276;49.354;6.804;2024-01-15T07:30:11;27.67;;;18.23;;
8478;SDS011;4276;49.354;6.804;2024-01-15T07:32:38;28.40;;;17.83;;
8478;SDS011;4276;49.354;6.804;2024-01-15T07:35:05;29.83;;;18.27;;
8478;SDS011;4276;49.354;6.804;2024-01-15T07:37:32;26.03;;;17.10;;
8478;SDS011;4276;49.354;6.804;2024-01-15T07:39:59;31.03;;;19.77;;
8478;SDS011;4276;49.354;6.804;2024-01-15T07:42:26;31.50;;;19.63;;
8478;SDS011;4276;49.354;6.804;2024-01-15T07:44:53;29.80;;;19.00;;
8478;SDS011;4276;49.354;6.804;2024-01-15T07:47:20;34.13;;;20.67;;
8478;SDS011;4276;49.354;6.804;2024-01-15T07:49:46;30.27;;;19.10;;
8478;SDS011;4276;49.354;6.804;2024-01-15T07:52:13;31.40;;;18.93;;
8478;SDS011;4276;49.354;6.804;2024-01-15T07:54:40;34.23;;;20.80;;
8478;SDS011;4276;49.354;6.804;2024-01-15T07:57:06;30.87;;;18.87;;
8478;SDS011;4276;49.354;6.804;2024-01-15T07:59:33;31.67;;;19.47;;
8478;SDS011;4276;49.354;6.804;2024-01-15T08:02:01;30.93;;;18.87;;
8478;SDS011;4276;49.354;6.804;2024-01-15T08:04:27;29.67;;;18.50;;
8478;SDS011;4276;49.354;6.804;2024-01-15T08:06:54;28.77;;;19.40;;
8478;SDS011;4276;49.354;6.804;2024-01-15T08:09:21;31.00;;;18.23;;
8478;SDS011;4276;49.354;6.804;2024-01-15T08:11:48;30.27;;;18.47;;
8478;SDS011;4276;49.354;6.804;2024-01-15T08:14:15;28.60;;;18.33;;
8478;SDS011;4276;49.354;6.804;2024-01-15T08:16:42;29.67;;;18.00;;
8478;SDS011;4276;49.354;6.804;2024-01-15T08:19:10;29.60;;;18.30;;
8478;SDS011;4276;49.354;6.804;2024-01-15T08:21:36;28.50;;;17.77;;
8478;SDS011;4276;49.354;6.804;2024-01-15T08:24:03;28.93;;;18.27;;
8478;SDS011;4276;49.354;6.804;2024-01-15T08:26:30;27.33;;;18.00;;
8478;SDS011;4276;49.354;6.804;2024-01-15T08:28:56;31.97;;;18.93;;
8478;SDS011;4276;49.354;6.804;2024-01-15T08:31:23;27.73;;;17.87;;
8478;SDS011;4276;49.354;6.804;2024-01-15T08:33:50;35.10;;;20.70;;
8478;SDS011;4276;49.354;6.804;2024-01-15T08:36:17;32.37;;;21.40;;
8478;SDS011;4276;49.354;6.804;2024-01-15T08:38:44;35.10;;;22.00;;
8478;SDS011;4276;49.354;6.804;2024-01-15T08:41:11;38.17;;;23.33;;
8478;SDS011;4276;49.354;6.804;2024-01-15T08:43:38;33.40;;;20.90;;
8478;SDS011;4276;49.354;6.804;2024-01-15T08:46:04;30.80;;;20.63;;
8478;SDS011;4276;49.354;6.804;2024-01-15T08:48:31;34.47;;;23.33;;
8478;SDS011;4276;49.354;6.804;2024-01-15T08:50:58;35.97;;;21.97;;
8478;SDS011;4276;49.354;6.804;2024-01-15T08:53:24;34.37;;;21.67;;
8478;SDS011;4276;49.354;6.804;2024-01-15T08:55:51;29.93;;;18.93;;
8478;SDS011;4276;49.354;6.804;2024-01-15T08:58:18;28.13;;;17.97;;
8478;SDS011;4276;49.354;6.804;2024-01-15T09:00:44;24.37;;;17.00;;
8478;SDS011;4276;49.354;6.804;2024-01-15T09:03:11;29.20;;;18.60;;
8478;SDS011;4276;49.354;6.804;2024-01-15T09:05:38;25.83;;;17.67;;
8478;SDS011;4276;49.354;6.804;2024-01-15T09:08:05;27.10;;;18.60;;
8478;SDS011;4276;49.354;6.804;2024-01-15T09:10:31;26.03;;;18.87;;
8478;SDS011;4276;49.354;6.804;2024-01-15T09:12:58;25.10;;;18.00;;
8478;SDS011;4276;49.354;6.804;2024-01-15T09:15:26;27.97;;;17.27;;
8478;SDS011;4276;49.354;6.804;2024-01-15T09:17:54;23.67;;;17.60;;
8478;SDS011;4276;49.354;6.804;2024-01-15T09:20:20;25.77;;;17.60;;
8478;SDS011;4276;49.354;6.804;2024-01-15T09:22:47;32.43;;;21.97;;
8478;SDS011;4276;49.354;6.804;2024-01-15T09:25:13;28.53;;;17.80;;
8478;SDS011;4276;49.354;6.804;2024-01-15T09:27:40;28.87;;;18.30;;
8478;SDS011;4276;49.354;6.804;2024-01-15T09:30:07;28.63;;;18.67;;
8478;SDS011;4276;49.354;6.804;2024-01-15T09:32:34;24.07;;;16.63;;
8478;SDS011;4276;49.354;6.804;2024-01-15T09:35:01;25.23;;;16.67;;
8478;SDS011;4276;49.354;6.804;2024-01-15T09:37:28;25.63;;;18.20;;
8478;SDS011;4276;49.354;6.804;2024-01-15T09:40:12;25.23;;;17.53;;
8478;SDS011;4276;49.354;6.804;2024-01-15T09:42:41;24.47;;;17.10;;
8478;SDS011;4276;49.354;6.804;2024-01-15T09:45:09;22.47;;;15.73;;
8478;SDS011;4276;49.354;6.804;2024-01-15T09:47:36;21.43;;;16.17;;
8478;SDS011;4276;49.354;6.804;2024-01-15T09:50:07;21.07;;;15.40;;
8478;SDS011;4276;49.354;6.804;2024-01-15T09:52:35;21.00;;;16.00;;
8478;SDS011;4276;49.354;6.804;2024-01-15T09:55:02;20.17;;;15.17;;
8478;SDS011;4276;49.354;6.804;2024-01-15T09:57:31;17.33;;;13.63;;
8478;SDS011;4276;49.354;6.804;2024-01-15T09:59:59;19.13;;;14.13;;
8478;SDS011;4276;49.354;6.804;2024-01-15T10:02:30;20.83;;;13.97;;
8478;SDS011;4276;49.354;6.804;2024-01-15T10:04:57;18.80;;;14.63;;
8478;SDS011;4276;49.354;6.804;2024-01-15T10:07:23;17.80;;;14.07;;
8478;SDS011;4276;49.354;6.804;2024-01-15T10:09:52;16.50;;;13.73;;
8478;SDS011;4276;49.354;6.804;2024-01-15T10:12:19;19.20;;;14.93;;
8478;SDS011;4276;49.354;6.804;2024-01-15T10:14:50;17.80;;;14.27;;
8478;SDS011;4276;49.354;6.804;2024-01-15T10:17:17;18.13;;;13.70;;
8478;SDS011;4276;49.354;6.804;2024-01-15T10:19:47;17.73;;;14.23;;
8478;SDS011;4276;49.354;6.804;2024-01-15T10:22:16;17.00;;;13.13;;
8478;SDS011;4276;49.354;6.804;2024-01-15T10:24:44;17.80;;;13.20;;
8478;SDS011;4276;49.354;6.804;2024-01-15T10:27:13;16.40;;;13.33;;
8478;SDS011;4276;49.354;6.804;2024-01-15T10:29:41;17.17;;;13.50;;
8478;SDS011;4276;49.354;6.804;2024-01-15T10:32:08;16.87;;;13.20;;
8478;SDS011;4276;49.354;6.804;2024-01-15T10:34:38;14.70;;;12.07;;
8478;SDS011;4276;49.354;6.804;2024-01-15T10:37:12;16.57;;;12.70;;
8478;SDS011;4276;49.354;6.804;2024-01-15T10:39:38;16.37;;;12.13;;
8478;SDS011;4276;49.354;6.804;2024-01-15T10:42:05;14.23;;;12.27;;
8478;SDS011;4276;49.354;6.804;2024-01-15T10:44:33;13.90;;;11.63;;
8478;SDS011;4276;49.354;6.804;2024-01-15T10:47:01;14.75;;;12.20;;
8478;SDS011;4276;49.354;6.804;2024-01-15T10:49:27;14.80;;;13.00;;
8478;SDS011;4276;49.354;6.804;2024-01-15T10:51:59;15.67;;;12.27;;
8478;SDS011;4276;49.354;6.804;2024-01-15T10:54:27;16.93;;;13.67;;
8478;SDS011;4276;49.354;6.804;2024-01-15T10:56:54;16.33;;;13.63;;
8478;SDS011;4276;49.354;6.804;2024-01-15T10:59:22;16.00;;;13.47;;
8478;SDS011;4276;49.354;6.804;2024-01-15T11:01:49;18.47;;;13.63;;
8478;SDS011;4276;49.354;6.804;2024-01-15T11:04:16;15.03;;;12.70;;
8478;SDS011;4276;49.354;6.804;2024-01-15T11:06:47;16.57;;;12.83;;
8478;SDS011;4276;49.354;6.804;2024-01-15T11:09:20;13.10;;;11.67;;
8478;SDS011;4276;49.354;6.804;2024-01-15T11:11:47;14.77;;;12.40;;
8478;SDS011;4276;49.354;6.804;2024-01-15T11:17:10;15.37;;;12.77;;
8478;SDS011;4276;49.354;6.804;2024-01-15T11:19:37;15.68;;;12.95;;
8478;SDS011;4276;49.354;6.804;2024-01-15T11:22:53;14.60;;;12.27;;
8478;SDS011;4276;49.354;6.804;2024-01-15T11:25:03;16.03;;;13.23;;
8478;SDS011;4276;49.354;6.804;2024-01-15T11:27:43;16.00;;;13.10;;
8478;SDS011;4276;49.354;6.804;2024-01-15T11:30:11;15.83;;;13.17;;
8478;SDS011;4276;49.354;6.804;2024-01-15T11:32:39;13.30;;;11.83;;
8478;SDS011;4276;49.354;6.804;2024-01-15T11:35:10;16.00;;;12.23;;
8478;SDS011;4276;49.354;6.804;2024-01-15T11:40:21;13.40;;;12.00;;
8478;SDS011;4276;49.354;6.804;2024-01-15T11:42:48;14.10;;;12.00;;
8478;SDS011;4276;49.354;6.804;2024-01-15T11:45:16;15.48;;;13.02;;
8478;SDS011;4276;49.354;6.804;2024-01-15T11:50:44;16.95;;;13.05;;
8478;SDS011;4276;49.354;6.804;2024-01-15T11:53:27;13.67;;;12.20;;
8478;SDS011;4276;49.354;6.804;2024-01-15T11:56:01;14.70;;;13.02;;
8478;SDS011;4276;49.354;6.804;2024-01-15T11:58:28;14.93;;;12.43;;
8478;SDS011;4276;49.354;6.804;2024-01-15T12:00:55;16.80;;;13.60;;
8478;SDS011;4276;49.354;6.804;2024-01-15T12:03:22;17.53;;;14.43;;
8478;SDS011;4276;49.354;6.804;2024-01-15T12:05:51;17.15;;;15.32;;
8478;SDS011;4276;49.354;6.804;2024-01-15T12:08:24;17.65;;;15.13;;
8478;SDS011;4276;49.354;6.804;2024-01-15T12:10:52;15.97;;;13.20;;
8478;SDS011;4276;49.354;6.804;2024-01-15T12:13:19;15.57;;;13.43;;
8478;SDS011;4276;49.354;6.804;2024-01-15T12:15:46;14.40;;;12.88;;
8478;SDS011;4276;49.354;6.804;2024-01-15T12:18:16;13.63;;;11.30;;
8478;SDS011;4276;49.354;6.804;2024-01-15T12:20:45;12.93;;;11.38;;
8478;SDS011;4276;49.354;6.804;2024-01-15T12:23:15;11.32;;;9.73;;
8478;SDS011;4276;49.354;6.804;2024-01-15T12:25:43;13.73;;;11.80;;
8478;SDS011;4276;49.354;6.804;2024-01-15T12:28:09;15.05;;;12.05;;
8478;SDS011;4276;49.354;6.804;2024-01-15T12:30:36;11.98;;;10.20;;
8478;SDS011;4276;49.354;6.804;2024-01-15T12:33:04;13.55;;;9.98;;
8478;SDS011;4276;49.354;6.804;2024-01-15T12:35:32;10.88;;;9.45;;
8478;SDS011;4276;49.354;6.804;2024-01-15T12:38:00;12.35;;;10.32;;
8478;SDS011;4276;49.354;6.804;2024-01-15T12:40:30;12.55;;;10.80;;
8478;SDS011;4276;49.354;6.804;2024-01-15T12:42:57;13.73;;;11.43;;
8478;SDS011;4276;49.354;6.804;2024-01-15T12:45:24;12.85;;;10.35;;
8478;SDS011;4276;49.354;6.804;2024-01-15T12:47:50;11.82;;;10.57;;
8478;SDS011;4276;49.354;6.804;2024-01-15T12:50:17;13.38;;;9.95;;
8478;SDS011;4276;49.354;6.804;2024-01-15T12:52:46;10.55;;;9.45;;
8478;SDS011;4276;49.354;6.804;2024-01-15T12:55:13;15.60;;;10.98;;
8478;SDS011;4276;49.354;6.804;2024-01-15T12:57:41;11.13;;;9.93;;
8478;SDS011;4276;49.354;6.804;2024-01-15T13:00:08;11.43;;;9.40;;
8478;SDS011;4276;49.354;6.804;2024-01-15T13:02:38;13.25;;;9.65;;
8478;SDS011;4276;49.354;6.804;2024-01-15T13:05:06;13.15;;;9.02;;
8478;SDS011;4276;49.354;6.804;2024-01-15T13:07:34;10.68;;;8.70;;
8478;SDS011;4276;49.354;6.804;2024-01-15T13:10:01;12.13;;;9.43;;
8478;SDS011;4276;49.354;6.804;2024-01-15T13:12:28;11.23;;;9.82;;
8478;SDS011;4276;49.354;6.804;2024-01-15T13:14:54;9.52;;;8.55;;
8478;SDS011;4276;49.354;6.804;2024-01-15T13:17:21;10.32;;;8.43;;
8478;SDS011;4276;49.354;6.804;2024-01-15T13:19:48;12.18;;;9.18;;
8478;SDS011;4276;49.354;6.804;2024-01-15T13:22:15;12.20;;;9.23;;
8478;SDS011;4276;49.354;6.804;2024-01-15T13:24:42;10.48;;;9.25;;
8478;SDS011;4276;49.354;6.804;2024-01-15T13:27:09;8.68;;;7.78;;
8478;SDS011;4276;49.354;6.804;2024-01-15T13:29:35;8.82;;;7.97;;
8478;SDS011;4276;49.354;6.804;2024-01-15T13:32:02;10.43;;;8.32;;
8478;SDS011;4276;49.354;6.804;2024-01-15T13:34:29;10.88;;;9.23;;
8478;SDS011;4276;49.354;6.804;2024-01-15T13:36:56;13.73;;;10.38;;
8478;SDS011;4276;49.354;6.804;2024-01-15T13:39:23;14.00;;;11.55;;
8478;SDS011;4276;49.354;6.804;2024-01-15T13:41:50;14.90;;;11.40;;
8478;SDS011;4276;49.354;6.804;2024-01-15T13:44:16;14.20;;;11.82;;
8478;SDS011;4276;49.354;6.804;2024-01-15T13:46:43;14.23;;;12.38;;
8478;SDS011;4276;49.354;6.804;2024-01-15T13:49:09;11.25;;;10.13;;
8478;SDS011;4276;49.354;6.804;2024-01-15T13:51:36;12.05;;;10.48;;
8478;SDS011;4276;49.354;6.804;2024-01-15T13:54:03;10.43;;;9.23;;
8478;SDS011;4276;49.354;6.804;2024-01-15T13:56:32;10.13;;;9.13;;
8478;SDS011;4276;49.354;6.804;2024-01-15T13:58:59;10.40;;;8.80;;
8478;SDS011;4276;49.354;6.804;2024-01-15T14:01:26;10.32;;;9.23;;
8478;SDS011;4276;49.354;6.804;2024-01-15T14:03:53;9.93;;;8.38;;
8478;SDS011;4276;49.354;6.804;2024-01-15T14:06:20;9.20;;;7.90;;
8478;SDS011;4276;49.354;6.804;2024-01-15T14:08:47;9.90;;;7.50;;
8478;SDS011;4276;49.354;6.804;2024-01-15T14:11:13;7.95;;;7.15;;
8478;SDS011;4276;49.354;6.804;2024-01-15T14:13:40;9.15;;;8.25;;
8478;SDS011;4276;49.354;6.804;2024-01-15T14:16:06;8.20;;;6.82;;
8478;SDS011;4276;49.354;6.804;2024-01-15T14:18:33;7.72;;;6.93;;
8478;SDS011;4276;49.354;6.804;2024-01-15T14:21:00;8.18;;;7.47;;
8478;SDS011;4276;49.354;6.804;2024-01-15T14:23:27;9.52;;;7.93;;
8478;SDS011;4276;49.354;6.804;2024-01-15T14:25:53;13.48;;;8.90;;
8478;SDS011;4276;49.354;6.804;2024-01-15T14:28:20;10.65;;;7.72;;
8478;SDS011;4276;49.354;6.804;2024-01-15T14:30:46;8.90;;;7.30;;
8478;SDS011;4276;49.354;6.804;2024-01-15T14:33:13;10.23;;;7.78;;
8478;SDS011;4276;49.354;6.804;2024-01-15T14:35:39;8.10;;;7.30;;
8478;SDS011;4276;49.354;6.804;2024-01-15T14:38:06;10.82;;;8.13;;
8478;SDS011;4276;49.354;6.804;2024-01-15T14:40:34;10.05;;;7.15;;
8478;SDS011;4276;49.354;6.804;2024-01-15T14:43:01;6.65;;;6.05;;
8478;SDS011;4276;49.354;6.804;2024-01-15T14:45:29;6.00;;;5.50;;
8478;SDS011;4276;49.354;6.804;2024-01-15T14:47:56;5.78;;;5.00;;
8478;SDS011;4276;49.354;6.804;2024-01-15T14:50:24;5.45;;;4.78;;
8478;SDS011;4276;49.354;6.804;2024-01-15T14:52:51;5.10;;;4.50;;
8478;SDS011;4276;49.354;6.804;2024-01-15T14:55:18;4.90;;;4.40;;
8478;SDS011;4276;49.354;6.804;2024-01-15T14:57:44;5.80;;;4.43;;
8478;SDS011;4276;49.354;6.804;2024-01-15T15:00:11;5.57;;;5.07;;